createdAt,value
2022-09-21T00:00:00.171Z,100470.64
2022-09-21T00:02:29.474Z,100470.62
2022-09-21T00:04:58.404Z,100473.35
2022-09-21T00:07:30.162Z,100469.98
2022-09-21T00:09:59.422Z,100470.51
2022-09-21T00:12:32.024Z,100471.77
2022-09-21T00:15:01.481Z,100466.71
2022-09-21T00:17:32.610Z,100469.74
2022-09-21T00:20:05.502Z,100472.25
2022-09-21T00:22:36.559Z,100471.15
2022-09-21T00:25:05.937Z,100467.73
2022-09-21T00:27:34.700Z,100466.54
2022-09-21T00:30:05.273Z,100466.70
2022-09-21T00:32:37.345Z,100467.52
2022-09-21T00:35:08.183Z,100468.36
2022-09-21T00:37:40.033Z,100466.90
2022-09-21T00:40:09.277Z,100469.19
2022-09-21T00:42:39.055Z,100473.39
2022-09-21T00:45:21.552Z,100476.08
2022-09-21T00:47:53.409Z,100476.40
2022-09-21T00:50:26.649Z,100479.11
2022-09-21T00:52:58.492Z,100477.05
2022-09-21T00:55:35.223Z,100479.27
2022-09-21T00:58:09.627Z,100477.63
2022-09-21T01:00:40.646Z,100482.52
2022-09-21T01:03:12.461Z,100481.17
2022-09-21T01:05:43.580Z,100484.33
2022-09-21T01:08:15.604Z,100486.92
2022-09-21T01:10:57.892Z,100490.61
2022-09-21T01:13:55.965Z,100491.59
2022-09-21T01:16:56.464Z,100493.11
2022-09-21T01:20:16.230Z,100496.90
2022-09-21T01:23:05.315Z,100495.65
2022-09-21T01:25:48.969Z,100498.48
2022-09-21T01:28:30.682Z,100498.45
2022-09-21T01:31:06.554Z,100502.70
2022-09-21T01:33:42.942Z,100503.55
2022-09-21T01:36:15.742Z,100503.77
2022-09-21T01:38:50.432Z,100502.44
2022-09-21T01:41:24.941Z,100504.16
2022-09-21T01:43:57.923Z,100499.80
2022-09-21T01:46:32.909Z,100499.79
2022-09-21T01:49:07.324Z,100499.61
2022-09-21T01:51:36.818Z,100501.23
2022-09-21T01:54:14.704Z,100503.41
2022-09-21T01:56:52.256Z,100505.79
2022-09-21T01:59:45.896Z,100506.44
2022-09-21T02:02:22.642Z,100508.64
2022-09-21T02:04:52.268Z,100513.33
2022-09-21T02:07:22.330Z,100511.23
2022-09-21T02:09:51.246Z,100512.59
2022-09-21T02:12:22.378Z,100513.30
2022-09-21T02:14:55.922Z,100514.70
2022-09-21T02:18:10.147Z,100515.13
2022-09-21T02:20:51.126Z,100515.40
2022-09-21T02:23:24.414Z,100513.47
2022-09-21T02:26:02.474Z,100509.59
2022-09-21T02:28:56.653Z,100513.08
2022-09-21T02:31:40.556Z,100509.79
2022-09-21T02:34:33.869Z,100513.30
2022-09-21T02:37:22.652Z,100515.33
2022-09-21T02:39:57.123Z,100519.09
2022-09-21T02:42:31.756Z,100524.15
2022-09-21T02:45:18.630Z,100529.00
2022-09-21T02:47:56.990Z,100530.15
2022-09-21T02:50:39.496Z,100535.23
2022-09-21T02:53:11.789Z,100532.58
2022-09-21T02:55:42.497Z,100539.26
2022-09-21T02:58:15.095Z,100538.69
2022-09-21T03:00:44.778Z,100541.26
2022-09-21T03:03:18.914Z,100540.50
2022-09-21T03:05:50.720Z,100538.94
2022-09-21T03:08:22.775Z,100542.08
2022-09-21T03:10:51.649Z,100539.44
2022-09-21T03:13:21.470Z,100540.68
2022-09-21T03:15:50.424Z,100536.04
2022-09-21T03:18:19.273Z,100541.37
2022-09-21T03:20:48.098Z,100543.61
2022-09-21T03:23:16.940Z,100547.35
2022-09-21T03:25:49.337Z,100546.59
2022-09-21T03:28:19.228Z,100542.83
2022-09-21T03:30:52.691Z,100542.15
2022-09-21T03:33:22.536Z,100544.01
2022-09-21T03:35:52.734Z,100547.20
2022-09-21T03:38:21.989Z,100543.04
2022-09-21T03:40:51.171Z,100542.81
2022-09-21T03:43:21.496Z,100547.50
2022-09-21T03:45:50.394Z,100552.63
2022-09-21T03:48:19.322Z,100549.71
2022-09-21T03:50:48.490Z,100550.55
2022-09-21T03:53:18.094Z,100560.73
2022-09-21T03:55:46.967Z,100564.59
2022-09-21T03:58:17.306Z,100567.94
2022-09-21T04:00:46.748Z,100566.46
2022-09-21T04:03:15.672Z,100569.38
2022-09-21T04:05:44.716Z,100571.84
2022-09-21T04:08:13.794Z,100577.63
2022-09-21T04:10:44.519Z,100579.14
2022-09-21T04:13:17.003Z,100581.02
2022-09-21T04:15:45.911Z,100584.10
2022-09-21T04:18:15.466Z,100588.83
2022-09-21T04:20:44.906Z,100589.73
2022-09-21T04:23:13.911Z,100595.46
2022-09-21T04:25:45.316Z,100592.41
2022-09-21T04:28:15.319Z,100591.86
2022-09-21T04:30:44.661Z,100583.29
2022-09-21T04:33:15.835Z,100583.02
2022-09-21T04:35:45.252Z,100581.66
2022-09-21T04:38:14.406Z,100582.13
2022-09-21T04:40:43.729Z,100585.30
2022-09-21T04:43:12.643Z,100590.25
2022-09-21T04:45:42.815Z,100589.88
2022-09-21T04:48:12.337Z,100592.44
2022-09-21T04:50:41.984Z,100594.98
2022-09-21T04:53:11.453Z,100598.27
2022-09-21T04:55:40.958Z,100604.59
2022-09-21T04:58:11.430Z,100603.80
2022-09-21T05:00:40.555Z,100601.14
2022-09-21T05:03:10.220Z,100603.33
2022-09-21T05:05:38.926Z,100602.89
2022-09-21T05:08:07.955Z,100604.09
2022-09-21T05:10:36.939Z,100602.66
2022-09-21T05:13:09.671Z,100607.89
2022-09-21T05:15:39.908Z,100611.06
2022-09-21T05:18:10.356Z,100611.27
2022-09-21T05:20:39.238Z,100618.20
2022-09-21T05:23:13.602Z,100618.97
2022-09-21T05:25:46.602Z,100620.74
2022-09-21T05:28:19.276Z,100623.92
2022-09-21T05:31:17.929Z,100619.89
2022-09-21T05:34:06.865Z,100618.69
2022-09-21T05:36:53.899Z,100626.02
2022-09-21T05:39:23.443Z,100624.23
2022-09-21T05:41:52.716Z,100627.61
2022-09-21T05:44:24.546Z,100633.89
2022-09-21T05:47:24.676Z,100637.32
2022-09-21T05:50:31.399Z,100639.12
2022-09-21T05:53:27.926Z,100641.88
2022-09-21T05:55:58.535Z,100649.19
2022-09-21T05:58:48.886Z,100649.01
2022-09-21T06:01:29.960Z,100647.67
2022-09-21T06:04:03.818Z,100646.63
2022-09-21T06:06:34.987Z,100646.71
2022-09-21T06:09:04.480Z,100647.65
2022-09-21T06:11:35.056Z,100645.80
2022-09-21T06:14:07.578Z,100649.96
2022-09-21T06:16:42.629Z,100647.41
2022-09-21T06:19:14.038Z,100647.98
2022-09-21T06:21:44.775Z,100652.15
2022-09-21T06:24:14.180Z,100648.90
2022-09-21T06:26:43.880Z,100654.01
2022-09-21T06:29:13.401Z,100654.80
2022-09-21T06:31:43.540Z,100649.80
2022-09-21T06:34:12.831Z,100651.79
2022-09-21T06:36:44.657Z,100651.90
2022-09-21T06:39:15.737Z,100654.98
2022-09-21T06:41:44.911Z,100656.77
2022-09-21T06:44:13.689Z,100655.66
2022-09-21T06:46:42.729Z,100658.60
2022-09-21T06:49:11.893Z,100659.95
2022-09-21T06:51:44.247Z,100664.30
2022-09-21T06:54:13.200Z,100665.96
2022-09-21T06:56:45.338Z,100672.91
2022-09-21T06:59:15.619Z,100675.98
2022-09-21T07:01:45.630Z,100677.88
2022-09-21T07:04:23.127Z,100668.98
2022-09-21T07:06:56.859Z,100666.63
2022-09-21T07:12:16.673Z,100678.68
2022-09-21T07:14:46.030Z,100684.11
2022-09-21T07:17:16.223Z,100689.02
2022-09-21T07:19:46.111Z,100692.05
2022-09-21T07:22:14.823Z,100686.23
2022-09-21T07:24:45.405Z,100687.02
2022-09-21T07:27:15.444Z,100689.61
2022-09-21T07:29:47.883Z,100691.99
2022-09-21T07:32:18.202Z,100692.51
2022-09-21T07:34:47.822Z,100696.15
2022-09-21T07:37:16.687Z,100705.09
2022-09-21T07:39:46.392Z,100700.70
2022-09-21T07:42:15.373Z,100702.02
2022-09-21T07:44:44.953Z,100699.94
2022-09-21T07:47:15.615Z,100699.27
2022-09-21T07:49:46.973Z,100698.08
2022-09-21T07:52:16.388Z,100695.94
2022-09-21T07:54:47.723Z,100695.52
2022-09-21T07:57:36.999Z,100695.81
2022-09-21T08:00:08.470Z,100698.55
2022-09-21T08:02:45.132Z,100703.21
2022-09-21T08:05:17.181Z,100707.23
2022-09-21T08:07:48.837Z,100707.88
2022-09-21T08:10:19.251Z,100707.31
2022-09-21T08:13:15.776Z,100707.27
2022-09-21T08:15:50.213Z,100702.58
2022-09-21T08:18:22.044Z,100700.37
2022-09-21T08:20:59.617Z,100704.21
2022-09-21T08:23:30.872Z,100701.91
2022-09-21T08:26:02.386Z,100710.53
2022-09-21T08:28:39.427Z,100710.14
2022-09-21T08:31:11.867Z,100701.25
2022-09-21T08:33:42.226Z,100696.81
2022-09-21T08:36:13.572Z,100692.80
2022-09-21T08:38:42.827Z,100698.06
2022-09-21T08:41:45.475Z,100699.55
2022-09-21T08:44:32.846Z,100702.78
2022-09-21T08:47:13.326Z,100704.24
2022-09-21T08:49:51.658Z,100698.55
2022-09-21T08:52:22.417Z,100711.14
2022-09-21T08:54:59.390Z,100709.48
2022-09-21T08:57:32.161Z,100703.14
2022-09-21T09:00:02.591Z,100701.70
2022-09-21T09:02:50.724Z,100705.04
2022-09-21T09:05:34.771Z,100704.61
2022-09-21T09:08:32.094Z,100709.13
2022-09-21T09:11:24.508Z,100704.94
2022-09-21T09:14:02.502Z,100705.82
2022-09-21T09:16:34.435Z,100699.23
2022-09-21T09:19:12.967Z,100697.66
2022-09-21T09:21:44.296Z,100701.30
2022-09-21T09:24:28.192Z,100707.02
2022-09-21T09:27:07.897Z,100711.02
2022-09-21T09:29:49.519Z,100710.98
2022-09-21T09:32:19.147Z,100711.92
2022-09-21T09:35:07.761Z,100714.52
2022-09-21T09:37:40.881Z,100707.11
2022-09-21T09:40:14.987Z,100705.98
2022-09-21T09:42:46.733Z,100702.73
2022-09-21T09:45:15.452Z,100707.42
2022-09-21T09:48:10.744Z,100707.38
2022-09-21T09:50:41.254Z,100707.09
2022-09-21T09:53:22.852Z,100707.02
2022-09-21T09:55:54.818Z,100706.85
2022-09-21T09:58:35.692Z,100707.27
2022-09-21T10:01:04.712Z,100701.02
2022-09-21T10:03:33.577Z,100695.59
2022-09-21T10:06:02.751Z,100694.30
2022-09-21T10:08:46.860Z,100694.75
2022-09-21T10:11:18.382Z,100693.95
2022-09-21T10:13:49.672Z,100696.05
2022-09-21T10:16:19.193Z,100698.92
2022-09-21T10:19:01.904Z,100698.62
2022-09-21T10:21:51.353Z,100698.12
2022-09-21T10:24:28.758Z,100701.11
2022-09-21T10:27:05.859Z,100711.71
2022-09-21T10:29:47.413Z,100710.52
2022-09-21T10:32:17.217Z,100714.35
2022-09-21T10:35:18.436Z,100720.73
2022-09-21T10:37:54.754Z,100722.00
2022-09-21T10:40:27.525Z,100718.76
2022-09-21T10:42:59.306Z,100719.52
2022-09-21T10:45:33.257Z,100721.95
2022-09-21T10:48:16.967Z,100725.91
2022-09-21T10:50:49.897Z,100730.40
2022-09-21T10:53:34.719Z,100728.24
2022-09-21T10:56:17.743Z,100725.08
2022-09-21T10:59:20.107Z,100724.44
2022-09-21T11:01:56.128Z,100728.55
2022-09-21T11:04:46.788Z,100723.09
2022-09-21T11:07:32.583Z,100720.77
2022-09-21T11:10:42.743Z,100718.88
2022-09-21T11:13:33.855Z,100719.09
2022-09-21T11:16:22.910Z,100716.08
2022-09-21T11:19:31.534Z,100716.07
2022-09-21T11:22:22.085Z,100717.52
2022-09-21T11:24:54.496Z,100718.89
2022-09-21T11:27:36.709Z,100716.50
2022-09-21T11:30:17.634Z,100710.13
2022-09-21T11:33:19.476Z,100702.01
2022-09-21T11:36:00.480Z,100702.47
2022-09-21T11:38:57.783Z,100701.64
2022-09-21T11:41:26.621Z,100691.29
2022-09-21T11:43:55.998Z,100697.26
2022-09-21T11:46:43.778Z,100696.44
2022-09-21T11:49:34.821Z,100694.02
2022-09-21T11:52:17.423Z,100693.63
2022-09-21T11:54:56.968Z,100691.45
2022-09-21T11:57:58.936Z,100685.27
2022-09-21T12:00:35.091Z,100687.06
2022-09-21T12:03:35.888Z,100692.38
2022-09-21T12:06:13.767Z,100685.30
2022-09-21T12:08:54.842Z,100682.98
2022-09-21T12:11:44.901Z,100681.94
2022-09-21T12:14:29.631Z,100680.54
2022-09-21T12:17:51.172Z,100678.30
2022-09-21T12:20:43.131Z,100675.98
2022-09-21T12:23:47.510Z,100672.15
2022-09-21T12:26:22.771Z,100669.20
2022-09-21T12:29:01.187Z,100665.48
2022-09-21T12:31:45.626Z,100660.30
2022-09-21T12:34:25.407Z,100661.92
2022-09-21T12:37:15.689Z,100653.31
2022-09-21T12:40:03.386Z,100654.34
2022-09-21T12:42:49.199Z,100652.83
2022-09-21T12:45:32.623Z,100651.02
2022-09-21T12:48:43.024Z,100653.27
2022-09-21T12:51:25.082Z,100655.95
2022-09-21T12:54:02.783Z,100657.02
2022-09-21T12:56:34.704Z,100659.23
2022-09-21T12:59:31.756Z,100663.84
2022-09-21T13:02:14.567Z,100661.66
2022-09-21T13:04:51.179Z,100659.61
2022-09-21T13:07:36.706Z,100661.63
2022-09-21T13:10:20.022Z,100658.87
2022-09-21T13:13:26.902Z,100660.14
2022-09-21T13:16:00.402Z,100662.80
2022-09-21T13:18:36.755Z,100660.83
2022-09-21T13:21:30.400Z,100665.84
2022-09-21T13:24:26.892Z,100668.63
2022-09-21T13:27:00.404Z,100683.70
2022-09-21T13:29:35.845Z,100705.44
2022-09-21T13:32:12.673Z,100712.29
2022-09-21T13:34:45.747Z,100711.54
2022-09-21T13:37:27.845Z,100713.98
2022-09-21T13:40:04.390Z,100710.27
2022-09-21T13:42:33.327Z,100710.13
2022-09-21T13:45:36.358Z,100709.91
2022-09-21T13:48:20.749Z,100708.36
2022-09-21T13:50:49.692Z,100706.39
2022-09-21T13:53:22.951Z,100704.89
2022-09-21T13:55:55.252Z,100704.80
2022-09-21T13:58:35.245Z,100700.33
2022-09-21T14:01:35.822Z,100698.15
2022-09-21T14:04:39.444Z,100693.20
2022-09-21T14:07:10.279Z,100694.73
2022-09-21T14:09:55.353Z,100694.21
2022-09-21T14:12:28.700Z,100696.50
2022-09-21T14:15:39.882Z,100695.77
2022-09-21T14:18:12.106Z,100691.39
2022-09-21T14:20:44.117Z,100690.55
2022-09-21T14:23:17.004Z,100690.16
2022-09-21T14:25:53.781Z,100691.09
2022-09-21T14:28:35.714Z,100688.16
2022-09-21T14:31:17.930Z,100689.27
2022-09-21T14:33:55.285Z,100688.75
2022-09-21T14:36:38.392Z,100685.00
2022-09-21T14:39:34.848Z,100687.83
2022-09-21T14:42:12.803Z,100688.15
2022-09-21T14:44:45.128Z,100689.42
2022-09-21T14:47:20.694Z,100692.30
2022-09-21T14:49:52.617Z,100691.66
2022-09-21T14:52:32.372Z,100689.80
2022-09-21T14:55:20.600Z,100691.13
2022-09-21T14:58:02.378Z,100688.86
2022-09-21T15:00:43.194Z,100691.31
2022-09-21T15:03:37.367Z,100696.52
2022-09-21T15:06:45.951Z,100702.94
2022-09-21T15:09:37.266Z,100707.59
2022-09-21T15:12:54.174Z,100711.17
2022-09-21T15:15:44.623Z,100710.57
2022-09-21T15:18:21.333Z,100711.23
2022-09-21T15:21:04.913Z,100706.27
2022-09-21T15:23:40.475Z,100708.86
2022-09-21T15:26:24.417Z,100708.30
2022-09-21T15:29:14.902Z,100706.23
2022-09-21T15:31:47.721Z,100706.23
2022-09-21T15:34:22.281Z,100705.80
2022-09-21T15:36:53.417Z,100704.33
2022-09-21T15:39:25.130Z,100707.73
2022-09-21T15:42:06.907Z,100707.86
2022-09-21T15:44:41.225Z,100709.59
2022-09-21T15:47:14.197Z,100706.27
2022-09-21T15:49:46.570Z,100705.31
2022-09-21T15:52:25.718Z,100707.52
2022-09-21T15:55:03.299Z,100710.44
2022-09-21T15:57:40.980Z,100710.48
2022-09-21T16:00:17.462Z,100714.98
2022-09-21T16:03:21.777Z,100716.39
2022-09-21T16:05:55.845Z,100719.88
2022-09-21T16:08:28.088Z,100716.10
2022-09-21T16:11:31.112Z,100724.06
2022-09-21T16:14:32.980Z,100724.58
2022-09-21T16:17:14.660Z,100730.15
2022-09-21T16:19:51.476Z,100733.85
2022-09-21T16:22:30.179Z,100737.02
2022-09-21T16:25:02.434Z,100738.77
2022-09-21T16:27:35.107Z,100741.73
2022-09-21T16:30:05.163Z,100742.16
2022-09-21T16:32:38.301Z,100748.37
2022-09-21T16:35:31.960Z,100746.25
2022-09-21T16:38:02.967Z,100746.71
2022-09-21T16:40:36.365Z,100749.30
2022-09-21T16:43:06.492Z,100749.17
2022-09-21T16:45:36.080Z,100749.95
2022-09-21T16:48:08.382Z,100750.77
2022-09-21T16:50:43.584Z,100751.30
2022-09-21T16:53:20.156Z,100752.98
2022-09-21T16:55:50.596Z,100753.76
2022-09-21T16:58:24.081Z,100758.56
2022-09-21T17:00:56.450Z,100755.21
2022-09-21T17:03:26.165Z,100759.98
2022-09-21T17:05:57.701Z,100762.66
2022-09-21T17:08:30.614Z,100763.92
2022-09-21T17:11:01.829Z,100763.95
2022-09-21T17:14:06.370Z,100770.00
2022-09-21T17:16:37.198Z,100774.48
2022-09-21T17:19:10.768Z,100776.27
2022-09-21T17:21:41.729Z,100778.23
2022-09-21T17:24:32.748Z,100780.70
2022-09-21T17:27:05.022Z,100782.11
2022-09-21T17:29:37.632Z,100783.00
2022-09-21T17:32:11.406Z,100784.10
2022-09-21T17:34:42.835Z,100785.54
2022-09-21T17:37:14.862Z,100785.91
2022-09-21T17:39:47.679Z,100788.58
2022-09-21T17:42:25.294Z,100794.77
2022-09-21T17:45:13.965Z,100794.52
2022-09-21T17:47:44.495Z,100792.48
2022-09-21T17:50:13.193Z,100790.79
2022-09-21T17:53:06.956Z,100795.67
2022-09-21T17:55:40.244Z,100794.64
2022-09-21T17:58:25.915Z,100793.52
2022-09-21T18:01:12.092Z,100797.81
2022-09-21T18:03:45.101Z,100800.89
2022-09-21T18:06:18.715Z,100802.17
2022-09-21T18:08:48.038Z,100800.52
2022-09-21T18:11:38.965Z,100800.92
2022-09-21T18:14:25.519Z,100802.21
2022-09-21T18:17:21.687Z,100799.71
2022-09-21T18:20:12.931Z,100799.53
2022-09-21T18:23:24.018Z,100803.66
2022-09-21T18:25:58.888Z,100806.59
2022-09-21T18:28:49.496Z,100804.29
2022-09-21T18:31:52.886Z,100806.65
2022-09-21T18:34:56.463Z,100805.92
2022-09-21T18:37:51.557Z,100810.27
2022-09-21T18:40:34.344Z,100812.46
2022-09-21T18:43:47.791Z,100810.32
2022-09-21T18:46:49.479Z,100812.76
2022-09-21T18:49:49.038Z,100813.63
2022-09-21T18:53:02.761Z,100819.99
2022-09-21T18:55:37.133Z,100819.42
2022-09-21T18:58:08.987Z,100819.86
2022-09-21T19:00:40.150Z,100824.38
2022-09-21T19:03:18.498Z,100820.16
2022-09-21T19:06:21.581Z,100822.36
2022-09-21T19:09:16.391Z,100822.09
2022-09-21T19:11:58.856Z,100824.22
2022-09-21T19:14:53.918Z,100824.23
2022-09-21T19:17:29.758Z,100821.63
2022-09-21T19:20:12.158Z,100820.24
2022-09-21T19:23:04.740Z,100819.70
2022-09-21T19:25:49.887Z,100818.23
2022-09-21T19:28:43.558Z,100824.98
2022-09-21T19:31:20.726Z,100824.40
2022-09-21T19:33:57.725Z,100831.25
2022-09-21T19:36:29.867Z,100831.20
2022-09-21T19:39:00.250Z,100831.74
2022-09-21T19:41:41.163Z,100827.42
2022-09-21T19:45:08.057Z,100828.00
2022-09-21T19:47:52.767Z,100828.96
2022-09-21T19:50:23.168Z,100832.70
2022-09-21T19:53:13.491Z,100830.14
2022-09-21T19:56:06.003Z,100831.77
2022-09-21T19:59:17.880Z,100832.14
2022-09-21T20:01:57.252Z,100832.84
2022-09-21T20:04:42.906Z,100834.73
2022-09-21T20:08:04.662Z,100832.42
2022-09-21T20:11:02.548Z,100831.66
2022-09-21T20:13:45.794Z,100830.64
2022-09-21T20:16:49.985Z,100833.44
2022-09-21T20:19:53.472Z,100834.20
2022-09-21T20:22:36.095Z,100835.89
2022-09-21T20:25:24.027Z,100835.08
2022-09-21T20:27:59.507Z,100834.98
2022-09-21T20:30:35.096Z,100834.55
2022-09-21T20:33:14.185Z,100831.19
2022-09-21T20:35:44.304Z,100830.09
2022-09-21T20:38:15.295Z,100830.75
2022-09-21T20:40:47.515Z,100830.06
2022-09-21T20:43:19.111Z,100830.10
2022-09-21T20:45:51.381Z,100826.52
2022-09-21T20:48:22.058Z,100823.27
2022-09-21T20:50:51.501Z,100825.40
2022-09-21T20:53:23.148Z,100825.48
2022-09-21T20:55:59.531Z,100825.01
2022-09-21T20:58:29.740Z,100826.35
2022-09-21T21:01:10.428Z,100827.20
2022-09-21T21:03:43.972Z,100822.17
2022-09-21T21:06:21.736Z,100824.87
2022-09-21T21:08:52.077Z,100823.44
2022-09-21T21:11:21.934Z,100823.30
2022-09-21T21:13:52.199Z,100822.39
2022-09-21T21:16:23.016Z,100820.70
2022-09-21T21:18:52.923Z,100823.70
2022-09-21T21:21:25.506Z,100825.16
2022-09-21T21:24:13.101Z,100827.60
2022-09-21T21:27:01.182Z,100824.45
2022-09-21T21:29:36.410Z,100821.64
2022-09-21T21:32:07.832Z,100822.75
2022-09-21T21:34:36.844Z,100823.11
2022-09-21T21:37:07.998Z,100823.91
2022-09-21T21:39:39.659Z,100826.02
2022-09-21T21:42:09.602Z,100822.92
2022-09-21T21:44:39.147Z,100823.13
2022-09-21T21:47:27.834Z,100823.63
2022-09-21T21:50:00.955Z,100822.05
2022-09-21T21:52:30.956Z,100823.58
2022-09-21T21:55:01.451Z,100819.20
2022-09-21T21:57:30.234Z,100820.05
2022-09-21T22:00:01.217Z,100819.92
2022-09-21T22:02:30.124Z,100815.00
2022-09-21T22:04:59.592Z,100814.59
2022-09-21T22:07:29.625Z,100812.25
2022-09-21T22:09:58.450Z,100812.30
2022-09-21T22:12:29.394Z,100810.22
2022-09-21T22:14:58.958Z,100813.02
2022-09-21T22:17:31.102Z,100812.98
2022-09-21T22:19:59.950Z,100815.86
2022-09-21T22:22:30.979Z,100819.14
2022-09-21T22:24:59.995Z,100813.90
2022-09-21T22:27:30.499Z,100814.76
2022-09-21T22:29:59.917Z,100814.25
2022-09-21T22:32:30.369Z,100815.36
2022-09-21T22:35:12.123Z,100814.32
2022-09-21T22:37:43.964Z,100816.83
2022-09-21T22:40:14.596Z,100819.66
2022-09-21T22:42:47.535Z,100814.95
2022-09-21T22:45:17.695Z,100817.61
2022-09-21T22:47:47.661Z,100812.48
2022-09-21T22:50:17.304Z,100812.85
2022-09-21T22:52:48.223Z,100812.85
2022-09-21T22:55:17.279Z,100811.16
2022-09-21T22:57:46.137Z,100811.69
2022-09-21T23:00:18.837Z,100813.45
2022-09-21T23:02:54.318Z,100815.31
2022-09-21T23:05:23.946Z,100814.70
2022-09-21T23:07:55.205Z,100819.02
2022-09-21T23:10:29.339Z,100819.95
2022-09-21T23:13:05.042Z,100817.21
2022-09-21T23:15:36.998Z,100815.56
2022-09-21T23:18:07.685Z,100816.60
2022-09-21T23:20:37.750Z,100814.14
2022-09-21T23:23:06.742Z,100817.05
2022-09-21T23:25:40.488Z,100816.96
2022-09-21T23:28:10.322Z,100816.64
2022-09-21T23:30:40.906Z,100818.82
2022-09-21T23:33:12.318Z,100817.48
2022-09-21T23:35:44.881Z,100817.92
2022-09-21T23:38:16.167Z,100821.23
2022-09-21T23:40:45.255Z,100821.23
2022-09-21T23:43:15.619Z,100822.27
2022-09-21T23:45:44.504Z,100822.23
2022-09-21T23:48:14.813Z,100818.60
2022-09-21T23:50:44.919Z,100817.15
2022-09-21T23:53:14.521Z,100814.48
2022-09-21T23:55:47.378Z,100817.77
2022-09-21T23:58:17.266Z,100814.54
